createdAt,value
2023-03-29T05:18:32.293Z,1.75
2023-03-29T05:21:00.223Z,2.30
2023-03-29T05:23:27.990Z,1.58
2023-03-29T05:25:54.906Z,2.17
2023-03-29T05:28:22.495Z,3.40
2023-03-29T05:31:05.133Z,3.55
2023-03-29T05:33:33.673Z,4.05
2023-03-29T05:36:08.044Z,2.97
2023-03-29T05:38:35.758Z,2.60
2023-03-29T05:41:03.072Z,1.60
2023-03-29T05:43:30.093Z,1.35
2023-03-29T05:45:57.224Z,1.40
2023-03-29T05:48:24.643Z,1.33
2023-03-29T05:50:53.720Z,1.20
2023-03-29T05:53:22.262Z,0.52
2023-03-29T05:55:49.324Z,0.77
2023-03-29T05:58:18.110Z,0.93
2023-03-29T06:00:45.281Z,1.40
2023-03-29T06:03:21.450Z,0.95
2023-03-29T06:05:59.234Z,1.48
2023-03-29T06:08:27.666Z,1.90
2023-03-29T06:11:06.521Z,0.77
2023-03-29T06:13:34.109Z,0.52
2023-03-29T06:16:01.408Z,1.17
2023-03-29T06:18:29.681Z,1.25
2023-03-29T06:20:56.604Z,0.63
2023-03-29T06:23:23.716Z,0.90
2023-03-29T06:25:55.404Z,0.88
2023-03-29T06:28:24.016Z,1.75
2023-03-29T06:33:18.856Z,1.60
2023-03-29T06:35:48.050Z,0.88
2023-03-29T06:38:15.255Z,0.98
2023-03-29T06:40:43.214Z,2.30
2023-03-29T06:43:10.648Z,1.40
2023-03-29T06:50:35.901Z,0.80
2023-03-29T06:53:04.097Z,0.63
2023-03-29T07:00:29.883Z,0.25
2023-03-29T07:02:58.680Z,0.60
2023-03-29T07:42:39.309Z,0.13
2023-03-29T08:04:46.895Z,0.65
2023-03-29T08:07:16.970Z,0.22
2023-03-29T16:04:10.840Z,0.50
2023-03-29T16:36:06.837Z,0.52
2023-03-29T16:38:36.243Z,0.55
2023-03-29T16:41:03.126Z,0.63
2023-03-29T16:43:29.994Z,0.73
2023-03-29T16:45:57.426Z,0.90
2023-03-29T16:48:24.473Z,1.57
2023-03-29T16:50:51.783Z,0.73
2023-03-29T17:03:12.874Z,1.15
2023-03-29T17:05:42.728Z,1.58
2023-03-29T17:08:10.226Z,0.90
2023-03-29T17:10:40.838Z,0.80
2023-03-29T17:13:08.321Z,1.02
2023-03-29T17:15:38.158Z,1.73
2023-03-29T17:18:06.599Z,1.25
2023-03-29T17:20:33.656Z,1.63
2023-03-29T17:23:00.746Z,2.17
2023-03-29T17:25:27.664Z,1.23
2023-03-29T17:27:54.526Z,2.20
2023-03-29T17:30:21.532Z,1.35
2023-03-29T17:32:48.725Z,2.35
2023-03-29T17:35:15.682Z,2.47
2023-03-29T17:37:42.600Z,2.28
2023-03-29T17:40:11.428Z,1.65
2023-03-29T17:42:38.443Z,1.77
2023-03-29T17:45:06.235Z,1.92
2023-03-29T17:47:33.146Z,1.50
2023-03-29T17:50:00.492Z,1.85
2023-03-29T17:52:27.336Z,1.60
2023-03-29T17:54:54.192Z,1.33
2023-03-29T17:57:21.095Z,1.92
2023-03-29T17:59:47.932Z,1.90
2023-03-29T18:02:22.313Z,2.63
2023-03-29T18:04:49.813Z,2.63
2023-03-29T18:07:17.396Z,3.97
2023-03-29T18:09:44.327Z,2.95
2023-03-29T18:12:11.144Z,4.22
2023-03-29T18:14:38.135Z,3.83
2023-03-29T18:17:05.085Z,3.13
2023-03-29T18:19:32.046Z,2.50
2023-03-29T18:21:58.870Z,2.80
2023-03-29T18:24:26.186Z,3.25
2023-03-29T18:26:53.142Z,2.88
2023-03-29T18:29:19.926Z,2.65
2023-03-29T18:31:47.424Z,3.10
2023-03-29T18:34:14.626Z,2.90
2023-03-29T18:36:41.572Z,2.72
2023-03-29T18:39:09.675Z,2.33
2023-03-29T18:41:37.423Z,2.92
2023-03-29T18:44:05.075Z,2.33
2023-03-29T18:46:33.293Z,2.20
2023-03-29T18:49:01.418Z,1.90
2023-03-29T18:51:28.596Z,1.63
2023-03-29T18:53:56.488Z,1.00
2023-03-29T18:56:23.511Z,1.25
2023-03-29T18:58:50.389Z,1.40
2023-03-29T19:01:17.630Z,1.27
2023-03-29T19:03:44.723Z,1.40
2023-03-29T19:06:12.005Z,1.55
2023-03-29T19:08:41.274Z,1.38
2023-03-29T19:11:11.358Z,1.35
2023-03-29T19:13:38.355Z,1.30
2023-03-29T19:16:05.824Z,1.40
2023-03-29T19:18:33.166Z,1.15
2023-03-29T19:21:00.113Z,1.83
2023-03-29T19:23:28.359Z,2.15
2023-03-29T19:25:57.835Z,2.20
2023-03-29T19:28:25.321Z,2.85
2023-03-29T19:30:52.919Z,2.38
2023-03-29T19:33:20.210Z,3.50
2023-03-29T19:35:49.572Z,3.80
2023-03-29T19:38:16.820Z,3.63
2023-03-29T19:40:48.270Z,4.10
2023-03-29T19:45:45.573Z,2.08
2023-03-29T19:48:21.895Z,4.45
2023-03-29T19:53:17.353Z,3.85
2023-03-29T19:55:45.400Z,4.47
